LSGG/GVA METAR and TAF weather

Enter ICAO airport designator
Station Type Date Time Source
LSGG METAR 2019/06/27 10:20 UTC NOAA

LSGG 271020Z 09003KT 020V150 CAVOK 30/18 Q1024 NOSIG


Station Type Date Time Source
LSGG Decoded METAR 2019/06/27 10:20 UTC NOAA

Geneve-Cointrin, Switzerland (LSGG) 46-15N 006-08E 416M
Jun 27, 2019 - 06:20 AM EDT / 2019.06.27 1020 UTC
Wind: from the E (090 degrees) at 3 MPH (3 KT) (direction variable):0
Visibility: greater than 7 mile(s):0
Temperature: 86 F (30 C)
Dew Point: 64 F (18 C)
Relative Humidity: 48%
Pressure (altimeter): 30.24 in. Hg (1024 hPa)
ob: LSGG 271020Z 09003KT 020V150 CAVOK 30/18 Q1024 NOSIG
cycle: 10

Station Type Date Time Source
LSGG TAF 2019/06/27 09:33 UTC NOAA

TAF TAF LSGG 270825Z 2709/2815 05006KT CAVOK TX35/2715Z TN19/2802Z TX34/2815Z

Example: see airport list